Terminal Aerodrome Forecast
Issued by NWS

Current Version | Previous Version | Text Only | Print | Product List | Glossary On
Versions: 1 2 3 4 5 6 7 8 9 10 11 12 13 14 15
000
FTUS42 KMLB 011639 AAA
TAFSFB
TAF AMD
KSFB 011639Z 0117/0212 22014G18KT P6SM VCSH SCT030 SCT060 BKN120
      TEMPO 0117/0119 VRB18G35KT 3SM TSRA BKN030CB BKN060
     FM020000 22007KT P6SM FEW025 BKN150 BKN250=

USA.gov is the U.S. government's official web portal to all federal, state and local government web resources and services.